Time;durP1;ratioP1;P1;durP2;ratioP2;P2;SDS_P1;SDS_P2;PMS_P1;PMS_P2;Temp;Humidity;BMP_temperature;BMP_pressure;BME280_temperature;BME280_humidity;BME280_pressure;Samples;Min_cycle;Max_cycle;Signal;HPM_P1;HPM_P2
2021/01/04 00:00:52;;;;;;;1.88;1.50;;;;;;;0.36;79.50;102663.44;4985788;28;20057;-75
2021/01/04 00:04:00;;;;;;;3.58;1.90;;;;;;;0.34;79.17;102655.53;4990959;28;20022;-74
2021/01/04 00:06:33;;;;;;;2.08;1.38;;;;;;;0.29;79.38;102651.63;4981760;28;20041;-74
2021/01/04 00:09:33;;;;;;;2.20;1.48;;;;;;;0.27;79.59;102653.63;4987214;28;20035;-75
2021/01/04 00:12:09;;;;;;;1.70;1.50;;;;;;;0.26;79.30;102654.66;5003741;28;20546;-74
2021/01/04 00:15:03;;;;;;;1.83;1.55;;;;;;;0.25;79.34;102651.13;4986358;28;20104;-74
2021/01/04 00:17:46;;;;;;;2.38;1.77;;;;;;;0.25;79.73;102643.09;4984672;28;20479;-75
2021/01/04 00:20:26;;;;;;;2.28;1.48;;;;;;;0.21;78.87;102649.75;5003361;28;20120;-75
2021/01/04 00:23:22;;;;;;;2.30;1.73;;;;;;;0.18;79.39;102658.94;4986973;28;20518;-75
2021/01/04 00:25:51;;;;;;;2.55;1.70;;;;;;;0.19;79.78;102659.78;4985571;28;20410;-75
2021/01/04 00:28:19;;;;;;;1.75;1.35;;;;;;;0.18;79.81;102655.44;4987589;28;20062;-74
2021/01/04 00:31:01;;;;;;;1.63;1.25;;;;;;;0.16;79.13;102652.06;4971018;28;20026;-74
2021/01/04 00:33:42;;;;;;;2.40;1.20;;;;;;;0.12;79.30;102651.56;4989729;28;20034;-74
2021/01/04 00:36:15;;;;;;;1.83;1.27;;;;;;;0.06;79.12;102654.03;4987355;28;20386;-74
2021/01/04 00:39:02;;;;;;;1.67;1.23;;;;;;;0.04;79.51;102647.97;4985789;28;20035;-74
2021/01/04 00:41:39;;;;;;;1.70;1.20;;;;;;;0.02;79.31;102645.44;4981309;28;20045;-74
2021/01/04 00:44:07;;;;;;;1.83;1.20;;;;;;;-0.02;78.93;102652.13;4990572;28;20027;-74
2021/01/04 00:46:35;;;;;;;1.30;1.00;;;;;;;-0.03;79.43;102655.81;4971493;28;20446;-74
2021/01/04 00:49:39;;;;;;;1.20;1.02;;;;;;;-0.08;79.15;102640.22;4988380;28;20038;-74
2021/01/04 00:52:17;;;;;;;2.10;0.90;;;;;;;-0.12;78.95;102644.19;4967874;28;20026;-74
2021/01/04 00:54:51;;;;;;;1.10;0.90;;;;;;;-0.19;78.86;102644.97;4967267;28;20041;-75
2021/01/04 00:57:33;;;;;;;1.20;0.90;;;;;;;-0.21;78.71;102644.31;4978819;28;20042;-74
2021/01/04 01:00:16;;;;;;;1.23;0.90;;;;;;;-0.21;78.53;102639.78;4982443;28;20049;-76
2021/01/04 01:02:50;;;;;;;;;;;;;;;-0.18;79.05;102639.47;4969369;28;20056;-75
2021/01/04 01:05:30;;;;;;;3.38;1.25;;;;;;;-0.21;78.98;102653.19;4997617;28;19909;-75
2021/01/04 01:08:02;;;;;;;2.72;1.75;;;;;;;-0.23;78.51;102647.13;4990651;28;20032;-75
2021/01/04 01:10:29;;;;;;;2.10;1.35;;;;;;;-0.24;78.81;102650.81;4992125;28;20019;-74
2021/01/04 01:13:16;;;;;;;1.55;1.20;;;;;;;-0.25;78.67;102660.69;5006674;28;20018;-75
2021/01/04 01:16:05;;;;;;;1.42;1.23;;;;;;;-0.24;78.79;102656.19;4982141;28;20038;-75
2021/01/04 01:18:54;;;;;;;1.85;1.00;;;;;;;-0.23;78.55;102661.38;4991861;28;20026;-75
2021/01/04 01:21:19;;;;;;;2.03;1.30;;;;;;;-0.23;78.76;102661.38;4991277;28;20141;-75
2021/01/04 01:23:47;;;;;;;1.30;1.10;;;;;;;-0.22;78.60;102656.84;4991754;28;20080;-74
2021/01/04 01:26:40;;;;;;;1.23;1.10;;;;;;;-0.23;79.01;102652.50;4994094;28;20029;-75
2021/01/04 01:29:39;;;;;;;1.85;0.90;;;;;;;-0.24;78.65;102664.22;4947276;28;20043;-75
2021/01/04 01:32:26;;;;;;;2.30;1.10;;;;;;;-0.27;78.26;102667.22;4992952;28;20506;-74
2021/01/04 01:35:16;;;;;;;1.13;1.00;;;;;;;-0.28;78.81;102666.34;4995892;28;20053;-75
2021/01/04 01:37:59;;;;;;;1.35;1.10;;;;;;;-0.28;78.41;102665.50;4991216;28;20163;-75
2021/01/04 01:40:45;;;;;;;;;;;;;;;-0.27;78.70;102660.00;4994681;28;20053;-75
2021/01/04 01:43:23;;;;;;;2.03;1.10;;;;;;;-0.30;78.37;102668.38;4991758;28;20313;-75
2021/01/04 01:46:01;;;;;;;2.08;1.23;;;;;;;-0.31;78.04;102665.81;4994777;28;20506;-74
2021/01/04 01:48:39;;;;;;;1.75;1.23;;;;;;;-0.33;78.44;102666.00;4978460;28;20080;-75
2021/01/04 01:51:27;;;;;;;1.48;1.02;;;;;;;-0.33;78.27;102670.50;4994259;28;20419;-75
2021/01/04 01:54:17;;;;;;;1.75;1.30;;;;;;;-0.36;78.62;102665.44;4995563;28;20467;-74
2021/01/04 01:57:01;;;;;;;2.10;1.20;;;;;;;-0.37;77.81;102666.47;4979073;28;20063;-75
2021/01/04 01:59:35;;;;;;;1.75;1.58;;;;;;;-0.36;78.20;102668.13;4995255;28;20157;-74
2021/01/04 02:02:07;;;;;;;1.13;1.02;;;;;;;-0.35;78.04;102664.47;4993046;28;20125;-75
2021/01/04 02:04:33;;;;;;;;;;;;;;;-0.33;78.22;102668.69;4995007;28;20057;-75
2021/01/04 02:07:06;;;;;;;1.90;1.30;;;;;;;-0.33;78.15;102674.03;4994221;28;20320;-74
2021/01/04 02:09:54;;;;;;;2.25;1.30;;;;;;;-0.33;78.12;102673.16;4995121;28;20260;-75
2021/01/04 02:12:47;;;;;;;1.30;1.10;;;;;;;-0.34;78.18;102671.50;4991203;28;20039;-75
2021/01/04 02:15:17;;;;;;;1.30;0.90;;;;;;;-0.34;77.98;102669.66;4991516;28;20468;-75
2021/01/04 02:18:01;;;;;;;1.08;0.90;;;;;;;-0.32;78.25;102669.50;4986863;28;20172;-75
2021/01/04 02:20:54;;;;;;;1.58;1.10;;;;;;;-0.35;77.73;102672.50;4989402;28;20497;-74
2021/01/04 02:23:34;;;;;;;1.58;0.98;;;;;;;-0.34;78.21;102675.03;4994273;28;20042;-75
2021/01/04 02:26:02;;;;;;;1.45;1.15;;;;;;;-0.32;78.45;102669.50;4977311;28;20024;-75
2021/01/04 02:28:29;;;;;;;1.70;1.00;;;;;;;-0.32;78.16;102674.88;4993181;28;20054;-75
2021/01/04 02:30:55;;;;;;;1.77;1.02;;;;;;;-0.32;77.76;102661.47;4977812;28;20018;-75
2021/01/04 02:33:20;;;;;;;1.20;0.90;;;;;;;-0.33;78.15;102663.31;4992935;28;20524;-76
2021/01/04 02:35:46;;;;;;;1.70;0.98;;;;;;;-0.34;77.87;102655.41;4992019;28;20479;-75
2021/01/04 02:38:11;;;;;;;0.77;0.77;;;;;;;-0.33;78.13;102667.81;4960222;28;20030;-75
2021/01/04 02:40:36;;;;;;;1.58;0.77;;;;;;;-0.34;77.91;102676.84;4993476;28;20434;-75
2021/01/04 02:43:02;;;;;;;1.50;1.00;;;;;;;-0.33;77.96;102673.16;4992582;28;20037;-75
2021/01/04 02:45:30;;;;;;;1.38;0.80;;;;;;;-0.33;78.19;102673.16;4976219;28;20038;-75
2021/01/04 02:48:15;;;;;;;1.60;0.80;;;;;;;-0.35;78.09;102681.38;4992357;28;20034;-75
2021/01/04 02:50:56;;;;;;;1.70;0.95;;;;;;;-0.34;77.81;102671.50;4993409;28;20029;-75
2021/01/04 02:53:41;;;;;;;1.27;0.93;;;;;;;-0.36;77.81;102670.81;4976746;28;20101;-75
2021/01/04 02:56:25;;;;;;;1.65;1.00;;;;;;;-0.34;77.90;102671.50;4992631;28;20026;-74
2021/01/04 02:59:05;;;;;;;1.95;0.90;;;;;;;-0.34;78.14;102676.84;4985838;28;20092;-74
2021/01/04 03:01:58;;;;;;;2.13;0.77;;;;;;;-0.35;78.04;102675.19;4993268;28;20030;-74
2021/01/04 03:04:24;;;;;;;1.13;0.77;;;;;;;-0.38;77.75;102670.97;4992062;28;20105;-74
2021/01/04 03:06:58;;;;;;;1.08;0.70;;;;;;;-0.37;77.62;102671.81;4976346;28;20082;-74
2021/01/04 03:09:27;;;;;;;1.50;0.90;;;;;;;-0.36;77.57;102674.31;4991950;28;20040;-74
2021/01/04 03:11:53;;;;;;;1.10;0.60;;;;;;;-0.33;78.02;102676.72;4975989;28;20490;-74
2021/01/04 03:14:23;;;;;;;1.00;0.70;;;;;;;-0.30;77.98;102675.53;4991715;28;20022;-74
2021/01/04 03:17:02;;;;;;;1.38;0.90;;;;;;;-0.28;77.73;102676.22;4993575;28;20037;-74
2021/01/04 03:19:29;;;;;;;1.10;0.90;;;;;;;-0.26;78.06;102682.28;4979752;28;21677;-74
2021/01/04 03:22:03;;;;;;;1.08;0.80;;;;;;;-0.28;77.76;102681.59;4975944;28;20052;-74
2021/01/04 03:24:29;;;;;;;1.10;0.82;;;;;;;-0.28;77.71;102684.28;4973905;28;20034;-74
2021/01/04 03:26:57;;;;;;;1.08;0.63;;;;;;;-0.30;77.74;102679.09;4960275;28;20034;-74
2021/01/04 03:29:22;;;;;;;1.08;0.77;;;;;;;-0.30;77.85;102672.84;4975735;28;20483;-74
2021/01/04 03:31:48;;;;;;;2.47;0.77;;;;;;;-0.30;77.79;102678.22;4992389;28;20065;-75
2021/01/04 03:34:13;;;;;;;1.08;0.60;;;;;;;-0.31;77.74;102676.53;4991607;28;20435;-74
2021/01/04 03:36:39;;;;;;;1.30;0.65;;;;;;;-0.33;78.00;102673.16;4991977;28;20042;-74
2021/01/04 03:39:04;;;;;;;1.52;0.77;;;;;;;-0.33;77.89;102679.41;4990700;28;20029;-74
2021/01/04 03:41:29;;;;;;;1.15;0.70;;;;;;;-0.33;78.03;102675.84;4992451;28;20457;-75
2021/01/04 03:43:56;;;;;;;1.23;0.95;;;;;;;-0.34;77.86;102679.53;4991134;28;20026;-74
2021/01/04 03:46:22;;;;;;;1.10;0.82;;;;;;;-0.32;77.76;102674.88;4976603;28;20121;-75
2021/01/04 03:48:47;;;;;;;1.90;0.90;;;;;;;-0.34;77.86;102676.84;4991375;28;20029;-74
2021/01/04 03:51:12;;;;;;;1.50;0.98;;;;;;;-0.34;77.80;102676.84;4993560;28;20475;-74
2021/01/04 03:53:40;;;;;;;1.20;1.10;;;;;;;-0.35;77.52;102672.50;4991598;28;20037;-75
2021/01/04 03:56:06;;;;;;;2.58;1.00;;;;;;;-0.36;77.72;102673.50;4991963;28;20028;-74
2021/01/04 03:58:31;;;;;;;1.10;0.70;;;;;;;-0.35;77.92;102675.19;4992174;28;20030;-75
2021/01/04 04:00:57;;;;;;;1.38;0.85;;;;;;;-0.36;77.97;102673.50;4992000;28;20030;-75
2021/01/04 04:03:22;;;;;;;1.40;1.17;;;;;;;-0.35;77.82;102675.19;4992115;28;20026;-75
2021/01/04 04:05:47;;;;;;;1.58;0.93;;;;;;;-0.34;77.58;102671.50;4990377;28;20566;-75
2021/01/04 04:08:13;;;;;;;1.17;0.80;;;;;;;-0.34;77.64;102671.50;4987555;28;20026;-75
2021/01/04 04:10:39;;;;;;;1.50;0.95;;;;;;;-0.36;77.70;102668.97;4992569;28;20379;-74
2021/01/04 04:13:05;;;;;;;0.90;0.80;;;;;;;-0.36;77.75;102676.16;4990625;28;20018;-75
2021/01/04 04:15:30;;;;;;;1.85;1.23;;;;;;;-0.34;78.17;102677.69;4993189;28;20048;-74
2021/01/04 04:17:55;;;;;;;1.67;1.00;;;;;;;-0.32;77.48;102673.03;4990142;28;20034;-74
2021/01/04 04:20:24;;;;;;;3.08;1.05;;;;;;;-0.34;77.59;102666.97;4993010;28;20076;-74
2021/01/04 04:22:50;;;;;;;2.53;0.88;;;;;;;-0.33;77.52;102676.72;4991254;28;20050;-76
2021/01/04 04:25:16;;;;;;;1.45;0.80;;;;;;;-0.32;77.76;102669.50;4992245;28;20053;-74
2021/01/04 04:27:42;;;;;;;1.67;1.02;;;;;;;-0.32;77.57;102680.22;4971235;28;20157;-74
2021/01/04 04:30:09;;;;;;;1.77;1.00;;;;;;;-0.32;77.46;102680.22;4990367;28;20026;-74
2021/01/04 04:32:35;;;;;;;1.23;0.90;;;;;;;-0.32;77.56;102674.88;4990938;28;20055;-74
2021/01/04 04:35:02;;;;;;;1.73;1.00;;;;;;;-0.32;77.77;102681.06;4974512;28;20431;-74
2021/01/04 04:37:27;;;;;;;1.27;1.05;;;;;;;-0.32;77.89;102675.72;4992459;28;20036;-74
2021/01/04 04:39:53;;;;;;;1.30;1.00;;;;;;;-0.29;77.91;102679.94;4989564;28;20030;-74
2021/01/04 04:42:18;;;;;;;1.30;0.98;;;;;;;-0.30;77.89;102681.75;4974171;28;20030;-74
2021/01/04 04:45:01;;;;;;;2.10;1.05;;;;;;;-0.28;77.65;102686.97;4974086;28;20018;-74
2021/01/04 04:47:56;;;;;;;1.98;1.10;;;;;;;-0.28;77.83;102689.63;4991390;28;20162;-74
2021/01/04 04:50:37;;;;;;;1.67;1.08;;;;;;;-0.30;77.53;102689.81;4991538;28;20491;-74
2021/01/04 04:53:15;;;;;;;1.90;1.03;;;;;;;-0.29;77.66;102685.28;4991627;28;20101;-74
2021/01/04 04:55:59;;;;;;;1.35;1.10;;;;;;;-0.30;77.66;102694.31;4987011;28;20038;-74
2021/01/04 04:58:54;;;;;;;2.47;1.10;;;;;;;-0.32;77.60;102686.44;4989028;28;20030;-74
2021/01/04 05:01:24;;;;;;;1.52;1.00;;;;;;;-0.31;77.63;102690.78;4973773;28;20166;-75
2021/01/04 05:04:00;;;;;;;1.20;1.10;;;;;;;-0.32;77.34;102691.78;4977911;28;20506;-74
2021/01/04 05:06:37;;;;;;;1.05;0.90;;;;;;;-0.32;77.36;102690.97;4982005;28;20049;-74
2021/01/04 05:09:20;;;;;;;1.95;1.10;;;;;;;-0.32;77.56;102690.97;5003425;28;20042;-74
2021/01/04 05:11:47;;;;;;;1.80;1.10;;;;;;;-0.29;77.43;102685.28;4983674;28;20564;-74
2021/01/04 05:14:22;;;;;;;1.17;0.90;;;;;;;-0.27;77.40;102697.53;4995224;28;20023;-75
2021/01/04 05:17:01;;;;;;;1.25;1.10;;;;;;;-0.25;77.76;102692.00;4978960;28;20034;-74
2021/01/04 05:19:52;;;;;;;1.27;0.98;;;;;;;-0.25;77.36;102698.22;4977619;28;20057;-74
2021/01/04 05:22:44;;;;;;;1.58;1.00;;;;;;;-0.23;77.63;102700.75;4992177;28;20038;-74
2021/01/04 05:25:35;;;;;;;5.72;3.30;;;;;;;-0.20;77.42;102700.44;4973132;28;20093;-74
2021/01/04 05:28:06;;;;;;;2.70;1.20;;;;;;;-0.19;77.35;102691.41;4978364;28;20030;-75
2021/01/04 05:30:42;;;;;;;2.05;1.20;;;;;;;-0.18;77.20;102694.91;4988425;28;20546;-74
2021/01/04 05:33:30;;;;;;;1.98;1.20;;;;;;;-0.17;77.39;102693.91;4993768;28;20072;-74
2021/01/04 05:36:38;;;;;;;1.90;1.08;;;;;;;-0.16;77.33;102701.81;4992710;28;20123;-74
2021/01/04 05:39:22;;;;;;;2.65;1.10;;;;;;;-0.13;77.48;102712.22;4984361;28;20034;-74
2021/01/04 05:41:53;;;;;;;1.23;0.80;;;;;;;-0.10;77.22;102701.19;4995660;28;20026;-74
2021/01/04 05:44:27;;;;;;;1.40;1.20;;;;;;;-0.08;77.07;102707.25;4988237;28;20027;-74
2021/01/04 05:47:24;;;;;;;1.83;1.00;;;;;;;-0.06;77.63;102707.91;4995269;28;20030;-75
2021/01/04 05:49:58;;;;;;;1.40;1.20;;;;;;;-0.04;77.52;102705.91;4975160;28;20029;-74
2021/01/04 05:52:23;;;;;;;1.77;1.15;;;;;;;0.01;77.55;102707.28;4978401;28;20465;-74
2021/01/04 05:54:48;;;;;;;1.95;0.90;;;;;;;0.03;77.42;102711.50;4992404;28;20034;-74
2021/01/04 05:57:15;;;;;;;1.98;1.20;;;;;;;0.02;77.21;102708.97;4986697;28;20022;-74
2021/01/04 05:59:52;;;;;;;1.48;0.90;;;;;;;0.03;77.30;102705.28;4993454;28;20030;-74
2021/01/04 06:02:34;;;;;;;1.20;1.10;;;;;;;0.05;77.13;102708.66;4993431;28;20026;-74
2021/01/04 06:05:13;;;;;;;1.90;0.95;;;;;;;0.06;77.30;102705.81;4994480;28;20088;-74
2021/01/04 06:07:40;;;;;;;2.65;1.30;;;;;;;0.08;77.12;102705.66;4994242;28;20105;-74
2021/01/04 06:10:07;;;;;;;1.63;1.02;;;;;;;0.08;76.83;102708.34;4976268;28;20034;-74
2021/01/04 06:12:36;;;;;;;3.25;1.13;;;;;;;0.09;77.33;102707.34;4988956;28;20030;-74
2021/01/04 06:15:03;;;;;;;1.15;0.80;;;;;;;0.12;76.78;102705.19;4992238;28;20030;-74
2021/01/04 06:17:33;;;;;;;3.58;1.20;;;;;;;0.12;77.04;102709.72;4994966;28;20023;-74
2021/01/04 06:20:02;;;;;;;1.60;1.10;;;;;;;0.13;77.10;102708.72;4993139;28;20030;-74
2021/01/04 06:22:29;;;;;;;1.60;1.10;;;;;;;0.16;77.34;102711.06;4993587;28;20113;-74
2021/01/04 06:25:05;;;;;;;1.20;0.80;;;;;;;0.17;77.23;102710.09;4993016;28;20054;-74
2021/01/04 06:27:32;;;;;;;1.70;0.88;;;;;;;0.19;77.07;102708.06;4989777;28;20194;-74
2021/01/04 06:30:00;;;;;;;1.13;0.90;;;;;;;0.18;77.00;102703.72;4992224;28;20022;-75
2021/01/04 06:32:31;;;;;;;2.30;0.80;;;;;;;0.18;76.57;102703.72;4980300;28;20479;-75
2021/01/04 06:35:04;;;;;;;3.50;1.90;;;;;;;0.21;76.78;102706.09;4992844;28;20125;-74
2021/01/04 06:37:31;;;;;;;2.83;0.98;;;;;;;0.24;76.75;102708.44;4977066;28;20454;-74
2021/01/04 06:40:07;;;;;;;1.10;0.88;;;;;;;0.26;76.71;102711.81;4959786;28;20045;-75
2021/01/04 06:42:37;;;;;;;1.55;0.82;;;;;;;0.28;76.66;102709.81;4993154;28;20034;-75
2021/01/04 06:45:07;;;;;;;1.40;1.08;;;;;;;0.30;77.04;102701.59;4991480;28;20081;-74
2021/01/04 06:47:45;;;;;;;1.20;0.98;;;;;;;0.28;76.27;102704.47;4994477;28;20023;-75
2021/01/04 06:50:19;;;;;;;1.88;1.35;;;;;;;0.25;76.43;102703.94;4993605;28;20057;-75
2021/01/04 06:53:23;;;;;;;1.92;1.10;;;;;;;0.23;76.57;102704.09;4992972;28;20026;-74
2021/01/04 06:55:57;;;;;;;1.90;1.33;;;;;;;0.24;76.43;102702.25;4991171;28;20030;-75
2021/01/04 06:59:05;;;;;;;1.40;1.00;;;;;;;0.24;76.46;102708.44;4991080;28;20034;-76
2021/01/04 07:01:56;;;;;;;1.48;1.02;;;;;;;0.26;76.50;102706.44;4975772;28;20038;-76
2021/01/04 07:05:09;;;;;;;1.90;1.02;;;;;;;0.28;76.60;102711.69;4993165;28;20537;-76
2021/01/04 07:08:04;;;;;;;1.50;0.80;;;;;;;0.28;76.50;102709.81;4977877;28;20049;-76
2021/01/04 07:11:07;;;;;;;1.10;1.00;;;;;;;0.29;76.85;102711.50;4983243;28;20039;-76
2021/01/04 07:13:59;;;;;;;2.90;0.80;;;;;;;0.30;76.40;102713.19;4976369;28;20042;-76
2021/01/04 07:16:46;;;;;;;0.93;0.73;;;;;;;0.30;76.64;102718.56;4993251;28;20034;-76
2021/01/04 07:19:37;;;;;;;1.95;1.20;;;;;;;0.33;76.59;102717.41;4991766;28;20096;-76
2021/01/04 07:22:07;;;;;;;2.25;0.90;;;;;;;0.36;76.51;102717.94;5000716;28;20446;-76
2021/01/04 07:24:57;;;;;;;1.65;0.80;;;;;;;0.37;76.62;102713.41;4988038;28;20048;-76
2021/01/04 07:27:31;;;;;;;0.90;0.70;;;;;;;0.38;76.40;102721.28;4977458;28;20038;-75
2021/01/04 07:30:02;;;;;;;1.50;0.82;;;;;;;0.40;76.66;102723.81;4990673;28;20030;-76
2021/01/04 07:32:54;;;;;;;1.23;0.70;;;;;;;0.40;76.71;102718.44;4978543;28;20117;-76
2021/01/04 07:35:38;;;;;;;1.33;0.77;;;;;;;0.39;76.03;102714.09;4992779;28;20073;-76
2021/01/04 07:38:33;;;;;;;2.58;1.10;;;;;;;0.37;76.22;102716.91;4993753;28;20026;-76
2021/01/04 07:41:06;;;;;;;1.70;0.88;;;;;;;0.40;76.44;102718.44;4990963;28;20098;-76
2021/01/04 07:44:09;;;;;;;0.98;0.88;;;;;;;0.40;76.17;102719.28;4972658;28;20031;-76
2021/01/04 07:46:35;;;;;;;3.22;1.25;;;;;;;0.41;76.27;102715.59;4984822;28;20030;-76
2021/01/04 07:49:39;;;;;;;4.32;1.38;;;;;;;0.41;76.39;102715.59;4991752;28;20045;-76
2021/01/04 07:52:42;;;;;;;1.70;1.10;;;;;;;0.43;75.82;102718.94;4983685;28;20037;-76
2021/01/04 07:55:17;;;;;;;6.65;3.30;;;;;;;0.44;76.06;102709.91;4991121;28;20067;-76
2021/01/04 07:58:04;;;;;;;10.93;7.32;;;;;;;0.43;75.89;102712.75;4986683;28;20053;-74
2021/01/04 08:01:07;;;;;;;51.72;28.45;;;;;;;0.46;76.24;102716.97;4984285;28;20029;-74
2021/01/04 08:03:54;;;;;;;103.65;55.17;;;;;;;0.44;76.56;102717.97;4987873;28;20031;-74
2021/01/04 08:06:56;;;;;;;111.72;59.03;;;;;;;0.46;76.09;102719.66;4988036;28;21262;-74
2021/01/04 08:09:47;;;;;;;15.80;10.55;;;;;;;0.44;76.19;102715.28;4981534;28;20030;-73
2021/01/04 08:12:30;;;;;;;9.60;5.05;;;;;;;0.41;76.08;102715.59;4988666;28;20045;-74
2021/01/04 08:15:24;;;;;;;5.97;4.05;;;;;;;0.39;76.01;102709.56;4984179;28;20100;-74
2021/01/04 08:17:51;;;;;;;7.07;4.40;;;;;;;0.39;76.03;102706.88;4984869;28;20018;-74
2021/01/04 08:20:16;;;;;;;4.97;2.40;;;;;;;0.39;75.81;102701.50;4968321;28;20036;-74
2021/01/04 08:22:53;;;;;;;3.10;1.70;;;;;;;0.39;76.19;102701.50;4979481;28;20407;-74
2021/01/04 08:25:43;;;;;;;2.30;1.95;;;;;;;0.41;76.37;102699.50;4982931;28;20061;-74
2021/01/04 08:28:35;;;;;;;6.07;2.72;;;;;;;0.46;76.08;102706.22;4979623;28;20038;-75
2021/01/04 08:31:04;;;;;;;2.57;1.20;;;;;;;0.48;76.11;102699.69;4988128;28;20102;-73
2021/01/04 08:33:45;;;;;;;2.85;1.42;;;;;;;0.51;76.24;102714.66;4982805;28;20660;-73
2021/01/04 08:36:16;;;;;;;1.07;0.70;;;;;;;0.54;76.03;102714.31;4968142;28;20049;-72
2021/01/04 08:38:42;;;;;;;1.13;0.93;;;;;;;0.57;75.97;102720.22;4991196;28;20034;-74
2021/01/04 08:41:19;;;;;;;1.00;0.80;;;;;;;0.61;76.26;102720.75;4990176;28;20085;-74
2021/01/04 08:43:46;;;;;;;1.13;0.90;;;;;;;0.65;75.93;102727.47;4992574;28;20022;-75
2021/01/04 08:46:32;;;;;;;1.58;1.15;;;;;;;0.68;76.50;102720.94;4992265;28;20113;-74
2021/01/04 08:49:26;;;;;;;2.42;1.73;;;;;;;0.71;76.28;102732.22;4990554;28;20163;-74
2021/01/04 08:51:51;;;;;;;2.72;1.85;;;;;;;0.74;76.17;102725.69;4989362;28;20039;-74
2021/01/04 08:54:31;;;;;;;2.00;1.60;;;;;;;0.75;75.44;102728.19;4989232;28;20134;-74
2021/01/04 08:57:10;;;;;;;8.50;7.05;;;;;;;0.77;75.92;102719.97;4992366;28;20042;-74
2021/01/04 08:59:35;;;;;;;6.50;5.82;;;;;;;0.78;75.88;102727.88;4992383;28;20073;-74
2021/01/04 09:02:19;;;;;;;10.95;9.20;;;;;;;0.80;75.58;102725.88;4974858;28;20101;-74
2021/01/04 09:04:44;;;;;;;13.50;8.43;;;;;;;0.81;76.12;102722.16;4990027;28;20336;-74
2021/01/04 09:07:19;;;;;;;22.23;12.32;;;;;;;0.83;75.91;102717.47;4991969;28;20034;-74
2021/01/04 09:10:00;;;;;;;8.63;4.55;;;;;;;0.83;75.59;102714.78;4989303;28;20061;-74
2021/01/04 09:12:36;;;;;;;10.50;5.68;;;;;;;0.86;75.89;102714.47;4990023;28;20162;-74
2021/01/04 09:15:05;;;;;;;37.53;23.10;;;;;;;0.89;75.29;102714.16;4972385;28;20018;-74
2021/01/04 09:17:36;;;;;;;40.85;26.13;;;;;;;0.93;75.44;102711.13;4990101;28;20022;-74
2021/01/04 09:20:36;;;;;;;18.02;12.75;;;;;;;0.95;75.40;102722.56;4989128;28;20034;-75
2021/01/04 09:23:13;;;;;;;6.18;4.30;;;;;;;0.96;75.44;102718.88;4989361;28;20042;-74
2021/01/04 09:25:49;;;;;;;6.30;2.53;;;;;;;0.96;75.52;102713.53;4985362;28;20403;-74
2021/01/04 09:28:15;;;;;;;2.85;2.33;;;;;;;0.98;75.64;102711.50;4983602;28;20554;-74
2021/01/04 09:30:41;;;;;;;2.97;1.95;;;;;;;0.99;75.47;102708.66;4970255;28;20044;-74
2021/01/04 09:33:16;;;;;;;2.10;0.95;;;;;;;1.02;75.05;102710.16;4986360;28;20022;-75
2021/01/04 09:35:41;;;;;;;3.88;2.08;;;;;;;1.04;75.48;102702.81;4986962;28;20026;-74
2021/01/04 09:38:15;;;;;;;4.18;1.27;;;;;;;1.04;75.39;102709.00;4991673;28;20538;-74
2021/01/04 09:40:51;;;;;;;2.22;1.27;;;;;;;1.06;74.79;102707.00;4970556;28;20042;-74
2021/01/04 09:43:20;;;;;;;3.38;1.40;;;;;;;1.07;75.10;102707.84;4990423;28;20023;-74
2021/01/04 09:45:46;;;;;;;3.22;1.90;;;;;;;1.08;75.18;102696.06;4983032;28;20034;-74
2021/01/04 09:48:23;;;;;;;4.53;3.75;;;;;;;1.08;74.78;102691.53;4994315;28;20033;-74
2021/01/04 09:51:00;;;;;;;6.20;3.92;;;;;;;1.09;74.64;102703.13;4970845;28;20150;-74
2021/01/04 09:53:29;;;;;;;8.98;6.20;;;;;;;1.08;75.04;102704.13;4984667;28;20436;-74
2021/01/04 09:55:59;;;;;;;9.63;5.28;;;;;;;1.09;75.29;102700.44;4989792;28;20034;-74
2021/01/04 09:58:25;;;;;;;4.05;2.85;;;;;;;1.07;75.36;102700.63;4987462;28;20038;-74
2021/01/04 10:00:50;;;;;;;8.15;7.22;;;;;;;1.09;75.38;102703.13;4986878;28;20026;-74
2021/01/04 10:03:18;;;;;;;3.63;2.58;;;;;;;1.08;75.03;102706.81;4991577;28;20383;-74
2021/01/04 10:05:45;;;;;;;5.30;4.07;;;;;;;1.08;75.47;102701.44;4985734;28;20041;-74
2021/01/04 10:08:14;;;;;;;3.65;1.35;;;;;;;1.11;74.86;102701.13;4993335;28;20049;-73
2021/01/04 10:10:58;;;;;;;3.22;2.17;;;;;;;1.11;75.24;102696.59;4995601;28;20034;-74
2021/01/04 10:13:25;;;;;;;3.20;2.60;;;;;;;1.11;75.19;102685.00;4993005;28;20026;-73
2021/01/04 10:15:51;;;;;;;2.35;1.95;;;;;;;1.11;75.28;102691.22;4992644;28;20050;-74
2021/01/04 10:18:33;;;;;;;2.45;2.03;;;;;;;1.10;75.27;102694.06;4992178;28;20034;-74
2021/01/04 10:20:59;;;;;;;2.83;1.92;;;;;;;1.13;74.68;102698.28;4986450;28;20030;-74
2021/01/04 10:23:38;;;;;;;2.30;1.70;;;;;;;1.13;74.98;102693.75;4991312;28;20042;-74
2021/01/04 10:26:04;;;;;;;3.45;2.35;;;;;;;1.16;74.92;102697.94;4973348;28;20026;-74
2021/01/04 10:28:36;;;;;;;5.28;2.45;;;;;;;1.15;75.12;102689.06;4974588;28;20026;-74
2021/01/04 10:31:14;;;;;;;5.90;4.60;;;;;;;1.13;74.76;102691.06;4967944;28;20030;-73
2021/01/04 10:33:39;;;;;;;3.80;2.30;;;;;;;1.13;74.85;102693.75;4991186;28;20549;-73
2021/01/04 10:36:16;;;;;;;142.93;67.43;;;;;;;1.10;75.28;102689.53;4990764;28;20030;-73
2021/01/04 10:38:44;;;;;;;5.20;2.22;;;;;;;1.11;74.90;102690.38;4991019;28;20116;-73
2021/01/04 10:41:11;;;;;;;27.83;19.30;;;;;;;1.08;74.99;102691.53;4974550;28;20023;-73
2021/01/04 10:43:36;;;;;;;3.85;3.00;;;;;;;1.06;74.85;102692.72;4991797;28;20064;-73
2021/01/04 10:46:15;;;;;;;3.65;2.00;;;;;;;1.08;74.99;102686.16;4992778;28;20104;-73
2021/01/04 10:48:41;;;;;;;3.28;2.90;;;;;;;1.11;75.29;102696.59;4993167;28;20032;-73
2021/01/04 10:51:15;;;;;;;5.90;2.90;;;;;;;1.11;74.90;102693.91;4992950;28;20026;-73
2021/01/04 10:53:41;;;;;;;5.25;2.70;;;;;;;1.13;75.13;102693.75;4992592;28;20454;-73
2021/01/04 10:56:09;;;;;;;2.92;2.45;;;;;;;1.15;75.41;102696.28;4994042;28;20030;-73
2021/01/04 10:58:37;;;;;;;7.93;5.45;;;;;;;1.16;74.83;102693.41;4992350;28;20538;-73
2021/01/04 11:01:06;;;;;;;6.78;5.38;;;;;;;1.18;75.40;102699.47;4991670;28;20125;-73
2021/01/04 11:03:32;;;;;;;4.15;2.28;;;;;;;1.20;75.17;102689.41;4976586;28;20491;-74
2021/01/04 11:05:58;;;;;;;3.33;1.27;;;;;;;1.22;75.30;102703.50;4994587;28;20045;-73
2021/01/04 11:08:23;;;;;;;2.05;1.27;;;;;;;1.24;75.62;102689.91;4991442;28;20026;-73
2021/01/04 11:10:53;;;;;;;2.20;1.35;;;;;;;1.23;75.36;102689.06;4994639;28;20467;-73
2021/01/04 11:13:27;;;;;;;2.28;0.90;;;;;;;1.19;74.93;102685.03;4976066;28;20114;-74
2021/01/04 11:16:03;;;;;;;3.30;1.10;;;;;;;1.18;75.76;102691.41;4993003;28;20037;-73
2021/01/04 11:18:28;;;;;;;2.40;1.13;;;;;;;1.18;75.86;102682.50;4987532;28;20026;-76
2021/01/04 11:20:54;;;;;;;2.63;1.30;;;;;;;1.18;75.51;102686.03;4970425;28;20067;-74
2021/01/04 11:23:19;;;;;;;1.90;1.17;;;;;;;1.19;75.54;102687.72;4988558;28;20519;-74
2021/01/04 11:25:45;;;;;;;1.80;1.10;;;;;;;1.20;75.37;102681.34;4992577;28;20026;-74
2021/01/04 11:28:11;;;;;;;1.17;0.98;;;;;;;1.18;75.60;102675.28;4991188;28;20040;-73
2021/01/04 11:30:36;;;;;;;2.05;1.27;;;;;;;1.18;75.60;102677.97;4989360;28;20150;-74
2021/01/04 11:33:02;;;;;;;2.47;2.20;;;;;;;1.19;75.40;102676.97;4986925;28;20061;-74
2021/01/04 11:35:28;;;;;;;4.57;3.08;;;;;;;1.18;76.01;102669.09;4966381;28;20037;-74
2021/01/04 11:37:54;;;;;;;3.85;1.85;;;;;;;1.19;76.20;102671.59;4987797;28;20118;-74
2021/01/04 11:40:19;;;;;;;5.35;2.35;;;;;;;1.20;75.86;102665.22;4988948;28;20076;-76
2021/01/04 11:42:45;;;;;;;5.55;2.28;;;;;;;1.20;76.53;102659.84;4971793;28;20498;-74
2021/01/04 11:45:11;;;;;;;16.38;10.45;;;;;;;1.23;76.04;102667.59;4991667;28;20036;-73
2021/01/04 11:47:37;;;;;;;9.02;6.05;;;;;;;1.25;76.18;102657.47;4972161;28;20493;-73
2021/01/04 11:50:05;;;;;;;11.50;5.90;;;;;;;1.28;76.33;102654.50;4983875;28;20479;-75
2021/01/04 11:52:32;;;;;;;7.97;2.08;;;;;;;1.28;76.37;102665.25;4988358;28;21292;-74
2021/01/04 11:54:57;;;;;;;2.78;1.80;;;;;;;1.30;76.18;102655.16;4988322;28;20030;-73
2021/01/04 11:57:23;;;;;;;4.22;1.42;;;;;;;1.29;76.39;102661.53;4988901;28;20030;-73
2021/01/04 11:59:48;;;;;;;2.88;1.52;;;;;;;1.30;76.76;102649.78;4989109;28;20065;-74
2021/01/04 12:02:14;;;;;;;2.40;1.48;;;;;;;1.29;76.75;102649.94;4990245;28;20034;-73
2021/01/04 12:04:39;;;;;;;3.65;3.05;;;;;;;1.30;76.73;102655.16;4990098;28;20038;-74
2021/01/04 12:07:05;;;;;;;9.20;6.18;;;;;;;1.29;76.98;102658.84;4987906;28;20034;-74